Time;durP1;ratioP1;P1;durP2;ratioP2;P2;SDS_P1;SDS_P2;PMS_P1;PMS_P2;Temp;Humidity;BMP_temperature;BMP_pressure;BME280_temperature;BME280_humidity;BME280_pressure;Samples;Min_cycle;Max_cycle;Signal;HPM_P1;HPM_P2
2022/03/12 00:00:15;;;;;;;12.00;5.57;;;3.50;42.50;;;;;;5058747;28;20447;-60
2022/03/12 00:02:42;;;;;;;11.83;5.53;;;3.50;42.70;;;;;;5058706;28;20552;-58
2022/03/12 00:05:09;;;;;;;12.17;5.20;;;3.50;42.80;;;;;;5058896;28;20455;-59
2022/03/12 00:07:37;;;;;;;14.83;6.50;;;3.50;43.10;;;;;;5058513;28;20486;-59
2022/03/12 00:10:05;;;;;;;9.87;5.70;;;3.40;43.30;;;;;;5058458;28;20556;-59
2022/03/12 00:12:36;;;;;;;13.93;5.40;;;3.40;43.20;;;;;;5058979;28;20451;-56
2022/03/12 00:15:10;;;;;;;9.80;5.50;;;3.40;43.30;;;;;;5058011;28;20967;-60
2022/03/12 00:17:39;;;;;;;8.73;5.43;;;3.40;43.40;;;;;;5057660;28;20427;-58
2022/03/12 00:20:12;;;;;;;19.20;7.07;;;3.40;43.30;;;;;;5058702;28;20451;-58
2022/03/12 00:22:41;;;;;;;18.07;6.17;;;3.40;43.40;;;;;;5058494;28;20745;-57
2022/03/12 00:25:10;;;;;;;12.50;6.70;;;3.30;43.60;;;;;;5058732;28;20463;-56
2022/03/12 00:27:39;;;;;;;12.40;6.67;;;3.30;43.70;;;;;;5058300;28;20491;-60
2022/03/12 00:30:10;;;;;;;12.60;6.73;;;3.30;43.60;;;;;;5058860;28;20455;-59
2022/03/12 00:32:37;;;;;;;10.83;5.60;;;3.30;43.60;;;;;;5058795;28;20431;-59
2022/03/12 00:35:05;;;;;;;14.73;4.87;;;3.20;43.80;;;;;;5058462;28;20443;-59
2022/03/12 00:37:35;;;;;;;15.73;6.97;;;3.20;43.80;;;;;;5058461;28;20447;-58
2022/03/12 00:40:02;;;;;;;16.13;7.10;;;3.20;43.90;;;;;;5058094;28;20455;-59
2022/03/12 00:42:31;;;;;;;11.77;6.27;;;3.20;44.10;;;;;;5058659;28;20493;-59
2022/03/12 00:44:58;;;;;;;16.03;5.53;;;3.20;44.40;;;;;;5057943;28;20440;-59
2022/03/12 00:47:27;;;;;;;12.07;5.90;;;3.20;44.30;;;;;;5059950;28;20556;-57
2022/03/12 00:49:55;;;;;;;16.97;6.30;;;3.10;44.20;;;;;;5060675;28;20545;-61
2022/03/12 00:52:22;;;;;;;15.33;6.23;;;3.10;44.30;;;;;;5059501;28;20475;-57
2022/03/12 00:54:48;;;;;;;8.13;5.67;;;3.20;44.40;;;;;;5058509;28;20512;-60
2022/03/12 00:57:15;;;;;;;15.57;7.80;;;3.20;44.50;;;;;;5058575;28;20439;-62
2022/03/12 00:59:44;;;;;;;12.37;5.07;;;3.10;44.40;;;;;;5058834;28;20447;-58
2022/03/12 01:02:13;;;;;;;10.97;5.93;;;3.10;44.60;;;;;;5058314;28;20479;-61
2022/03/12 01:04:41;;;;;;;29.77;6.37;;;3.10;44.60;;;;;;5058006;28;20495;-59
2022/03/12 01:07:10;;;;;;;14.10;7.10;;;3.10;44.80;;;;;;5058890;28;20486;-56
2022/03/12 01:09:36;;;;;;;12.50;6.53;;;3.10;45.20;;;;;;5059970;28;20451;-56
2022/03/12 01:12:04;;;;;;;11.57;7.93;;;3.10;44.80;;;;;;5059269;28;20485;-59
2022/03/12 01:14:31;;;;;;;10.60;6.80;;;3.10;44.80;;;;;;5058222;28;20533;-56
2022/03/12 01:16:58;;;;;;;12.80;6.67;;;3.00;44.90;;;;;;5057929;28;20467;-59
2022/03/12 01:19:26;;;;;;;17.83;7.67;;;3.10;45.00;;;;;;5057792;28;20487;-57
2022/03/12 01:21:54;;;;;;;18.23;6.93;;;3.00;45.20;;;;;;5058297;28;20961;-59
2022/03/12 01:24:21;;;;;;;12.87;7.30;;;3.00;45.20;;;;;;5058789;28;20509;-57
2022/03/12 01:26:47;;;;;;;28.43;7.90;;;2.90;45.50;;;;;;5059367;28;20577;-59
2022/03/12 01:29:14;;;;;;;12.27;6.83;;;2.90;45.40;;;;;;5059110;28;20481;-60
2022/03/12 01:31:43;;;;;;;14.47;8.23;;;2.90;45.40;;;;;;5062682;28;20455;-59
2022/03/12 01:34:10;;;;;;;12.57;6.53;;;2.90;45.40;;;;;;5061957;28;20565;-60
2022/03/12 01:36:37;;;;;;;12.83;6.53;;;2.80;45.60;;;;;;5063714;28;20485;-59
2022/03/12 01:39:05;;;;;;;10.90;6.60;;;2.80;45.80;;;;;;5063783;28;20458;-60
2022/03/12 01:41:34;;;;;;;18.47;6.97;;;2.80;45.60;;;;;;5062629;28;20467;-59
2022/03/12 01:44:02;;;;;;;9.90;6.60;;;2.70;45.70;;;;;;5062591;28;20580;-59
2022/03/12 01:46:34;;;;;;;10.97;6.67;;;2.70;45.90;;;;;;5062265;28;20508;-58
2022/03/12 01:49:04;;;;;;;17.63;6.83;;;2.70;46.00;;;;;;5064867;28;20431;-55
2022/03/12 01:51:31;;;;;;;12.33;7.40;;;2.70;46.10;;;;;;5064218;28;20447;-56
2022/03/12 01:53:58;;;;;;;10.50;6.53;;;2.70;46.50;;;;;;5062312;28;20950;-59
2022/03/12 01:56:29;;;;;;;13.50;7.13;;;2.70;46.50;;;;;;5061964;28;20776;-57
2022/03/12 01:58:57;;;;;;;17.67;7.07;;;2.70;46.40;;;;;;5062788;28;20524;-58
2022/03/12 02:01:27;;;;;;;11.90;6.43;;;2.70;46.50;;;;;;5062177;28;20443;-57
2022/03/12 02:03:56;;;;;;;18.27;8.00;;;2.60;46.60;;;;;;5062176;28;20458;-57
2022/03/12 02:06:24;;;;;;;13.83;6.77;;;2.60;46.60;;;;;;5061806;28;21036;-58
2022/03/12 02:08:54;;;;;;;12.90;6.30;;;2.60;46.60;;;;;;5061670;28;20474;-60
2022/03/12 02:11:27;;;;;;;12.87;6.60;;;2.50;46.70;;;;;;5060974;28;20485;-60
2022/03/12 02:14:01;;;;;;;11.50;6.40;;;2.50;46.60;;;;;;5061615;28;20459;-59
2022/03/12 02:16:29;;;;;;;16.43;7.47;;;2.50;46.50;;;;;;5061461;28;20472;-59
2022/03/12 02:18:56;;;;;;;10.43;6.73;;;2.50;46.60;;;;;;5061774;28;20562;-57
2022/03/12 02:21:34;;;;;;;17.67;6.50;;;2.40;46.80;;;;;;5062310;28;20458;-57
2022/03/12 02:24:03;;;;;;;14.60;6.63;;;2.40;46.80;;;;;;5061814;28;20489;-60
2022/03/12 02:26:30;;;;;;;13.77;6.87;;;2.40;47.10;;;;;;5061903;28;20487;-56
2022/03/12 02:28:58;;;;;;;10.10;5.87;;;2.30;46.90;;;;;;5062203;28;20486;-59
2022/03/12 02:31:26;;;;;;;10.37;6.93;;;2.30;46.90;;;;;;5061259;28;20450;-57
2022/03/12 02:33:54;;;;;;;13.40;6.37;;;2.30;46.90;;;;;;5061416;28;20475;-58
2022/03/12 02:36:21;;;;;;;12.53;5.57;;;2.40;47.00;;;;;;5061367;28;20471;-60
2022/03/12 02:38:50;;;;;;;13.37;6.40;;;3.10;47.70;;;;;;5061340;28;20439;-60
2022/03/12 02:41:22;;;;;;;13.10;7.30;;;2.40;47.20;;;;;;5060729;28;20447;-60
2022/03/12 02:43:48;;;;;;;13.10;7.50;;;2.30;47.20;;;;;;5061586;28;20493;-58
2022/03/12 02:46:16;;;;;;;14.70;6.50;;;2.30;47.40;;;;;;5061379;28;20455;-59
2022/03/12 02:48:49;;;;;;;11.60;6.27;;;2.20;47.20;;;;;;5062336;28;20471;-58
2022/03/12 02:51:16;;;;;;;15.50;5.83;;;2.20;47.20;;;;;;5064295;28;20482;-57
2022/03/12 02:53:44;;;;;;;20.90;7.60;;;2.20;47.80;;;;;;5062649;28;20538;-58
2022/03/12 02:56:11;;;;;;;13.20;6.60;;;2.20;47.80;;;;;;5061920;28;20525;-60
2022/03/12 02:58:39;;;;;;;11.33;6.17;;;2.20;47.70;;;;;;5061295;28;20447;-57
2022/03/12 03:01:06;;;;;;;12.53;6.13;;;2.10;47.80;;;;;;5061556;28;20475;-60
2022/03/12 03:03:35;;;;;;;14.30;6.70;;;2.10;47.50;;;;;;5062388;28;20815;-58
2022/03/12 03:06:02;;;;;;;13.00;8.20;;;2.10;47.50;;;;;;5062720;28;20511;-57
2022/03/12 03:08:29;;;;;;;17.70;7.30;;;2.10;47.80;;;;;;5061796;28;20801;-59
2022/03/12 03:10:58;;;;;;;14.07;6.27;;;2.10;48.00;;;;;;5061662;28;20443;-60
2022/03/12 03:13:36;;;;;;;14.93;6.37;;;2.00;47.70;;;;;;5061351;28;20455;-60
2022/03/12 03:16:08;;;;;;;13.17;6.10;;;2.00;47.60;;;;;;5061443;28;20874;-56
2022/03/12 03:18:38;;;;;;;13.00;6.20;;;2.00;47.60;;;;;;5060797;28;20485;-58
2022/03/12 03:21:08;;;;;;;14.47;5.90;;;2.00;47.70;;;;;;5061312;28;20509;-59
2022/03/12 03:23:35;;;;;;;9.80;6.00;;;2.00;47.70;;;;;;5061040;28;20467;-58
2022/03/12 03:26:03;;;;;;;14.00;5.60;;;1.90;47.80;;;;;;5061382;28;20513;-59
2022/03/12 03:28:29;;;;;;;17.67;4.90;;;1.90;47.80;;;;;;5060683;28;20491;-58
2022/03/12 03:30:56;;;;;;;10.40;4.57;;;1.90;48.00;;;;;;5060496;28;20448;-58
2022/03/12 03:33:25;;;;;;;14.83;7.00;;;1.90;48.00;;;;;;5061199;28;20467;-58
2022/03/12 03:35:54;;;;;;;14.00;6.23;;;1.80;48.50;;;;;;5061272;28;21062;-61
2022/03/12 03:38:21;;;;;;;14.07;6.20;;;1.80;48.10;;;;;;5062180;28;20467;-58
2022/03/12 03:40:49;;;;;;;12.40;6.70;;;1.80;48.00;;;;;;5062171;28;20463;-62
2022/03/12 03:43:19;;;;;;;11.10;5.13;;;1.80;47.90;;;;;;5060803;28;20482;-57
2022/03/12 03:45:47;;;;;;;11.40;5.60;;;1.80;48.10;;;;;;5061629;28;20486;-57
2022/03/12 03:48:17;;;;;;;11.73;6.23;;;1.70;48.30;;;;;;5060611;28;20475;-58
2022/03/12 03:50:47;;;;;;;11.40;5.70;;;1.70;48.60;;;;;;5061159;28;20963;-57
2022/03/12 03:53:19;;;;;;;11.57;6.47;;;1.70;48.60;;;;;;5061707;28;20542;-55
2022/03/12 03:55:46;;;;;;;11.53;6.90;;;1.70;48.70;;;;;;5063958;28;20521;-61
2022/03/12 03:58:15;;;;;;;18.83;6.57;;;1.70;48.60;;;;;;5063337;28;20447;-60
2022/03/12 04:00:53;;;;;;;17.97;6.00;;;1.60;48.70;;;;;;5061298;28;20455;-59
2022/03/12 04:03:20;;;;;;;15.63;6.63;;;1.70;48.70;;;;;;5061176;28;20426;-59
2022/03/12 04:05:48;;;;;;;13.63;6.50;;;1.60;48.70;;;;;;5061415;28;20534;-59
2022/03/12 04:08:15;;;;;;;16.80;7.20;;;1.60;48.80;;;;;;5060986;28;20959;-58
2022/03/12 04:10:41;;;;;;;10.03;5.50;;;1.60;49.00;;;;;;5061306;28;20451;-56
2022/03/12 04:13:13;;;;;;;13.27;6.17;;;1.50;49.00;;;;;;5061718;28;20487;-57
2022/03/12 04:15:40;;;;;;;14.17;6.30;;;1.50;49.10;;;;;;5061404;28;20487;-58
2022/03/12 04:18:07;;;;;;;12.73;7.30;;;1.50;49.10;;;;;;5061339;28;20447;-58
2022/03/12 04:20:37;;;;;;;12.63;6.80;;;1.50;49.30;;;;;;5060748;28;20546;-57
2022/03/12 04:23:05;;;;;;;11.47;5.77;;;1.50;49.30;;;;;;5060454;28;20439;-59
2022/03/12 04:25:32;;;;;;;14.10;5.63;;;1.50;49.20;;;;;;5060318;28;20532;-59
2022/03/12 04:27:59;;;;;;;10.10;6.70;;;1.40;49.20;;;;;;5061015;28;20483;-58
2022/03/12 04:30:28;;;;;;;11.60;7.83;;;1.40;49.20;;;;;;5060472;28;20482;-58
2022/03/12 04:32:55;;;;;;;12.00;7.23;;;1.40;49.20;;;;;;5060579;28;20512;-58
2022/03/12 04:35:22;;;;;;;8.80;6.27;;;1.40;49.50;;;;;;5060834;28;20459;-57
2022/03/12 04:37:49;;;;;;;11.87;6.40;;;1.40;49.70;;;;;;5060865;28;20466;-58
2022/03/12 04:40:21;;;;;;;9.67;7.00;;;1.40;49.40;;;;;;5060988;28;20505;-60
2022/03/12 04:42:48;;;;;;;14.80;6.00;;;1.70;49.90;;;;;;5060157;28;20436;-58
2022/03/12 04:45:16;;;;;;;10.60;6.23;;;1.40;49.60;;;;;;5060525;28;20477;-58
2022/03/12 04:47:44;;;;;;;12.43;5.60;;;1.40;49.70;;;;;;5060777;28;20510;-58
2022/03/12 04:50:12;;;;;;;15.30;6.00;;;1.30;49.70;;;;;;5061054;28;20443;-58
2022/03/12 04:52:40;;;;;;;16.10;8.23;;;1.30;50.20;;;;;;5060163;28;20493;-56
2022/03/12 04:55:10;;;;;;;14.70;8.53;;;1.30;50.20;;;;;;5062174;28;20442;-61
2022/03/12 04:57:39;;;;;;;13.50;6.97;;;1.30;50.20;;;;;;5062999;28;20439;-56
2022/03/12 05:00:07;;;;;;;18.10;6.73;;;1.20;50.20;;;;;;5062786;28;20505;-59
2022/03/12 05:02:34;;;;;;;9.33;6.80;;;1.20;50.40;;;;;;5062057;28;20528;-62
2022/03/12 05:05:01;;;;;;;19.07;7.47;;;1.20;50.30;;;;;;5065144;28;20470;-55
2022/03/12 05:07:28;;;;;;;18.90;6.70;;;1.20;49.90;;;;;;5065341;28;20963;-59
2022/03/12 05:09:56;;;;;;;13.40;7.93;;;1.40;50.10;;;;;;5064639;28;20528;-58
2022/03/12 05:12:24;;;;;;;22.20;9.83;;;1.20;50.00;;;;;;5065050;28;20478;-59
2022/03/12 05:14:54;;;;;;;12.40;6.80;;;1.20;50.20;;;;;;5063887;28;20482;-58
2022/03/12 05:17:24;;;;;;;12.90;8.10;;;1.10;50.10;;;;;;5064456;28;20550;-58
2022/03/12 05:19:51;;;;;;;11.17;7.37;;;1.20;50.00;;;;;;5063628;28;20463;-59
2022/03/12 05:22:18;;;;;;;16.23;7.30;;;1.20;50.30;;;;;;5064279;28;20534;-59
2022/03/12 05:24:46;;;;;;;13.20;6.17;;;1.20;50.20;;;;;;5063885;28;20477;-58
2022/03/12 05:27:14;;;;;;;11.43;6.07;;;1.20;50.00;;;;;;5064446;28;20521;-59
2022/03/12 05:29:42;;;;;;;14.37;6.27;;;1.10;49.90;;;;;;5065447;28;20919;-56
2022/03/12 05:32:12;;;;;;;8.07;5.20;;;1.10;49.90;;;;;;5065061;28;20483;-57
2022/03/12 05:34:39;;;;;;;13.87;6.57;;;1.20;50.30;;;;;;5064709;28;20431;-58
2022/03/12 05:37:08;;;;;;;9.63;5.83;;;1.20;50.10;;;;;;5064492;28;20540;-57
2022/03/12 05:39:35;;;;;;;16.70;7.97;;;1.20;49.90;;;;;;5064191;28;20494;-59
2022/03/12 05:42:03;;;;;;;23.97;9.10;;;1.20;50.00;;;;;;5064362;28;20455;-57
2022/03/12 05:44:30;;;;;;;13.73;7.87;;;1.20;50.40;;;;;;5064127;28;20479;-59
2022/03/12 05:46:57;;;;;;;18.97;8.67;;;1.30;50.20;;;;;;5064068;28;20477;-59
2022/03/12 05:49:25;;;;;;;18.13;7.50;;;1.30;50.00;;;;;;5063096;28;20513;-55
2022/03/12 05:51:52;;;;;;;14.60;7.77;;;1.20;50.70;;;;;;5063713;28;20463;-60
2022/03/12 05:54:19;;;;;;;19.07;7.40;;;1.30;50.20;;;;;;5064078;28;20798;-64
2022/03/12 05:56:45;;;;;;;13.20;7.00;;;1.20;50.20;;;;;;5067044;28;20443;-59
2022/03/12 05:59:13;;;;;;;17.40;6.53;;;1.20;50.20;;;;;;5065597;28;20451;-54
2022/03/12 06:01:40;;;;;;;16.00;6.83;;;1.30;50.30;;;;;;5065183;28;20441;-59
2022/03/12 06:04:08;;;;;;;14.77;7.27;;;1.20;50.30;;;;;;5064562;28;20505;-60
2022/03/12 06:06:36;;;;;;;11.27;7.27;;;1.30;50.20;;;;;;5063115;28;20475;-60
2022/03/12 06:09:05;;;;;;;16.20;7.90;;;1.30;50.20;;;;;;5063456;28;20475;-56
2022/03/12 06:11:32;;;;;;;13.80;7.27;;;1.30;50.20;;;;;;5063326;28;20494;-55
2022/03/12 06:14:01;;;;;;;13.43;7.67;;;1.30;50.20;;;;;;5063381;28;20462;-57
2022/03/12 06:16:28;;;;;;;13.37;6.57;;;1.40;50.30;;;;;;5063009;28;20577;-58
2022/03/12 06:18:55;;;;;;;12.77;6.60;;;1.40;50.20;;;;;;5063401;28;20450;-56
2022/03/12 06:21:22;;;;;;;14.77;7.77;;;1.30;50.20;;;;;;5062787;28;20451;-59
2022/03/12 06:23:51;;;;;;;12.33;6.53;;;1.40;50.20;;;;;;5064012;28;20459;-55
2022/03/12 06:26:18;;;;;;;13.37;8.30;;;1.40;50.20;;;;;;5063955;28;20450;-60
2022/03/12 06:28:45;;;;;;;10.90;6.67;;;1.40;50.10;;;;;;5063871;28;20542;-59
2022/03/12 06:31:13;;;;;;;14.90;7.70;;;1.40;50.50;;;;;;5064050;28;20446;-59
2022/03/12 06:33:40;;;;;;;14.17;8.17;;;1.40;50.20;;;;;;5062622;28;20467;-59
2022/03/12 06:36:09;;;;;;;16.13;8.23;;;1.40;50.20;;;;;;5062806;28;20471;-56
2022/03/12 06:38:37;;;;;;;18.20;7.47;;;1.50;50.20;;;;;;5061895;28;20439;-53
2022/03/12 06:41:06;;;;;;;12.40;7.27;;;1.50;50.00;;;;;;5062332;28;20554;-57
2022/03/12 06:43:33;;;;;;;13.73;6.33;;;1.50;49.90;;;;;;5061572;28;20928;-57
2022/03/12 06:46:02;;;;;;;12.70;5.80;;;1.60;49.90;;;;;;5062182;28;20461;-59
2022/03/12 06:48:29;;;;;;;13.80;6.90;;;1.60;50.10;;;;;;5062582;28;20483;-59
2022/03/12 06:50:56;;;;;;;13.60;6.57;;;1.60;50.10;;;;;;5062981;28;20580;-59
2022/03/12 06:53:23;;;;;;;14.10;7.13;;;1.60;50.00;;;;;;5062335;28;20911;-58
2022/03/12 06:55:49;;;;;;;17.30;7.27;;;1.60;50.30;;;;;;5063478;28;20475;-61
2022/03/12 06:58:18;;;;;;;12.37;6.90;;;1.60;50.00;;;;;;5065081;28;20822;-60
2022/03/12 07:00:44;;;;;;;15.40;6.90;;;1.70;50.00;;;;;;5062204;28;20460;-58
2022/03/12 07:03:11;;;;;;;15.10;8.10;;;1.80;50.00;;;;;;5062071;28;20443;-57
2022/03/12 07:05:38;;;;;;;12.77;5.53;;;1.80;49.90;;;;;;5060757;28;20454;-59
2022/03/12 07:08:05;;;;;;;17.53;7.60;;;1.90;49.90;;;;;;5060599;28;20975;-58
2022/03/12 07:10:32;;;;;;;18.77;7.73;;;1.90;49.80;;;;;;5061481;28;20512;-59
2022/03/12 07:12:59;;;;;;;17.10;7.90;;;2.00;49.80;;;;;;5060237;28;20983;-59
2022/03/12 07:15:27;;;;;;;12.47;6.53;;;2.10;49.60;;;;;;5060321;28;20467;-59
2022/03/12 07:17:54;;;;;;;7.57;5.80;;;2.10;49.20;;;;;;5060746;28;20554;-59
2022/03/12 07:20:21;;;;;;;14.80;7.07;;;2.20;49.30;;;;;;5060677;28;20454;-59
2022/03/12 07:22:48;;;;;;;10.20;6.37;;;2.20;49.10;;;;;;5060334;28;20460;-58
2022/03/12 07:25:16;;;;;;;10.87;6.57;;;2.30;49.00;;;;;;5060301;28;20513;-57
2022/03/12 07:27:44;;;;;;;13.80;7.80;;;2.40;49.00;;;;;;5059710;28;20447;-56
2022/03/12 07:30:14;;;;;;;14.27;7.37;;;2.50;48.90;;;;;;5060186;28;20485;-59
2022/03/12 07:32:42;;;;;;;15.10;8.20;;;2.60;48.50;;;;;;5059899;28;20473;-57
2022/03/12 07:35:11;;;;;;;15.43;7.57;;;2.70;48.40;;;;;;5059937;28;20537;-58
2022/03/12 07:37:38;;;;;;;9.87;6.67;;;2.80;48.40;;;;;;5059362;28;20475;-59
2022/03/12 07:40:06;;;;;;;19.60;7.47;;;2.90;48.10;;;;;;5059059;28;20456;-59
2022/03/12 07:42:33;;;;;;;11.10;6.43;;;3.00;47.60;;;;;;5059825;28;20535;-57
2022/03/12 07:45:00;;;;;;;19.87;6.53;;;3.10;47.20;;;;;;5059318;28;20443;-57
2022/03/12 07:47:26;;;;;;;14.90;5.77;;;3.20;46.90;;;;;;5059599;28;20477;-59
2022/03/12 07:49:54;;;;;;;12.33;5.83;;;3.30;46.60;;;;;;5059291;28;20486;-55
2022/03/12 07:52:21;;;;;;;13.87;5.90;;;3.30;46.10;;;;;;5060323;28;20482;-59
2022/03/12 07:54:48;;;;;;;17.57;6.60;;;3.50;45.90;;;;;;5060147;28;20448;-56
2022/03/12 07:57:16;;;;;;;14.40;6.23;;;3.50;45.90;;;;;;5061221;28;20533;-59
2022/03/12 07:59:44;;;;;;;9.87;6.17;;;3.60;45.60;;;;;;5062367;28;20478;-55
2022/03/12 08:02:11;;;;;;;15.43;8.07;;;3.70;45.10;;;;;;5059737;28;20533;-58
2022/03/12 08:04:38;;;;;;;14.33;6.30;;;3.80;44.90;;;;;;5058837;28;20939;-58
2022/03/12 08:07:07;;;;;;;15.20;6.70;;;3.80;44.80;;;;;;5058583;28;20947;-57
2022/03/12 08:09:33;;;;;;;15.20;6.77;;;3.90;44.50;;;;;;5058718;28;20474;-60
2022/03/12 08:12:01;;;;;;;15.43;7.07;;;4.00;44.30;;;;;;5058023;28;20484;-57
2022/03/12 08:14:28;;;;;;;13.57;8.00;;;4.10;44.10;;;;;;5058103;28;20459;-60
2022/03/12 08:16:55;;;;;;;15.00;5.87;;;4.10;43.60;;;;;;5057871;28;20990;-59
2022/03/12 08:19:22;;;;;;;15.70;6.97;;;4.20;43.60;;;;;;5058203;28;20460;-59
2022/03/12 08:21:50;;;;;;;9.17;6.00;;;4.30;43.70;;;;;;5058505;28;20467;-59
2022/03/12 08:24:19;;;;;;;9.53;5.70;;;4.50;43.50;;;;;;5058509;28;20926;-59
2022/03/12 08:26:47;;;;;;;11.93;6.30;;;4.60;43.20;;;;;;5059308;28;20537;-57
2022/03/12 08:29:15;;;;;;;9.63;5.70;;;4.70;42.60;;;;;;5058258;28;20979;-58
2022/03/12 08:31:42;;;;;;;12.33;6.47;;;4.80;42.40;;;;;;5057644;28;20475;-59
2022/03/12 08:34:10;;;;;;;13.43;5.77;;;4.90;42.00;;;;;;5057968;28;20455;-57
2022/03/12 08:36:37;;;;;;;9.53;6.17;;;5.00;41.70;;;;;;5057337;28;20459;-59
2022/03/12 08:39:05;;;;;;;13.60;6.90;;;5.10;41.50;;;;;;5056530;28;20431;-57
2022/03/12 08:41:34;;;;;;;11.63;7.07;;;5.20;41.00;;;;;;5057328;28;20447;-59
2022/03/12 08:44:01;;;;;;;21.83;7.33;;;5.30;41.00;;;;;;5057009;28;20764;-57
2022/03/12 08:46:27;;;;;;;16.97;6.57;;;5.40;40.60;;;;;;5056986;28;20490;-57
2022/03/12 08:48:54;;;;;;;14.03;5.50;;;5.60;40.40;;;;;;5056505;28;20479;-60
2022/03/12 08:51:21;;;;;;;12.23;7.00;;;6.00;40.30;;;;;;5056285;28;20451;-59
2022/03/12 08:53:48;;;;;;;11.53;6.17;;;6.90;39.80;;;;;;5055475;28;20459;-60
2022/03/12 08:56:15;;;;;;;12.27;7.57;;;8.30;38.60;;;;;;5054990;28;20546;-62
2022/03/12 08:58:43;;;;;;;13.40;7.50;;;10.20;35.60;;;;;;5056065;28;20503;-60
2022/03/12 09:01:10;;;;;;;13.80;8.10;;;12.30;33.30;;;;;;5055728;28;20799;-60
2022/03/12 09:03:38;;;;;;;15.23;6.37;;;14.20;31.80;;;;;;5054459;28;20467;-60
2022/03/12 09:06:05;;;;;;;13.00;7.37;;;15.60;29.70;;;;;;5054420;28;20443;-60
2022/03/12 09:08:32;;;;;;;16.50;8.07;;;17.00;28.90;;;;;;5054228;28;20467;-58
2022/03/12 09:10:59;;;;;;;13.20;7.83;;;18.00;28.50;;;;;;5054496;28;20475;-58
2022/03/12 09:13:26;;;;;;;16.33;6.70;;;18.60;27.90;;;;;;5054101;28;20473;-57
2022/03/12 09:15:55;;;;;;;11.33;6.53;;;19.20;28.50;;;;;;5054337;28;20423;-59
2022/03/12 09:18:23;;;;;;;14.33;6.00;;;19.60;25.30;;;;;;5054200;28;20487;-61
2022/03/12 09:20:50;;;;;;;11.80;7.13;;;19.60;27.10;;;;;;5054241;28;20465;-59
2022/03/12 09:23:18;;;;;;;18.10;7.63;;;19.30;27.20;;;;;;5054151;28;20498;-60
2022/03/12 09:25:45;;;;;;;12.67;7.07;;;19.30;25.70;;;;;;5054271;28;20732;-59
2022/03/12 09:28:13;;;;;;;17.80;7.50;;;19.40;25.80;;;;;;5054338;28;20513;-59
2022/03/12 09:30:40;;;;;;;11.83;7.27;;;19.70;25.90;;;;;;5054057;28;20475;-58
2022/03/12 09:33:09;;;;;;;15.53;7.40;;;19.30;26.00;;;;;;5054023;28;20458;-58
2022/03/12 09:35:36;;;;;;;10.00;6.70;;;18.00;26.10;;;;;;5054349;28;20558;-58
2022/03/12 09:38:04;;;;;;;13.77;6.87;;;16.60;26.40;;;;;;5054137;28;20502;-57
2022/03/12 09:40:32;;;;;;;10.47;6.47;;;15.30;26.30;;;;;;5053756;28;20467;-57
2022/03/12 09:43:00;;;;;;;9.40;5.60;;;14.30;26.60;;;;;;5054316;28;20486;-60
2022/03/12 09:45:26;;;;;;;9.97;5.90;;;13.50;27.90;;;;;;5054104;28;20451;-59
2022/03/12 09:47:53;;;;;;;10.38;5.35;;;12.80;29.30;;;;;;5058691;28;20446;-59
2022/03/12 09:50:22;;;;;;;12.80;5.80;;;12.80;32.50;;;;;;5074818;28;20216;-59
2022/03/12 09:52:49;;;;;;;12.43;6.97;;;13.90;30.30;;;;;;5077466;28;20921;-58
2022/03/12 09:55:18;;;;;;;16.20;8.10;;;15.10;30.10;;;;;;5078801;28;20445;-57
2022/03/12 09:57:44;;;;;;;11.17;7.17;;;15.90;28.20;;;;;;5078322;28;20504;-58
2022/03/12 10:00:12;;;;;;;12.80;6.67;;;16.70;28.70;;;;;;5079188;28;20454;-61
2022/03/12 10:02:39;;;;;;;12.03;6.67;;;17.50;25.40;;;;;;5078487;28;20943;-58
2022/03/12 10:05:06;;;;;;;9.97;5.73;;;18.60;26.90;;;;;;5077672;28;20437;-56
2022/03/12 10:07:34;;;;;;;12.20;5.90;;;19.30;24.50;;;;;;5077163;28;20454;-57
2022/03/12 10:10:01;;;;;;;9.00;5.30;;;19.60;25.70;;;;;;5077341;28;20482;-56
2022/03/12 10:12:28;;;;;;;11.43;6.60;;;19.60;24.90;;;;;;5077449;28;20453;-58
2022/03/12 10:14:54;;;;;;;11.27;8.33;;;19.70;23.70;;;;;;5077023;28;20518;-58
2022/03/12 10:17:21;;;;;;;7.50;6.50;;;20.40;24.20;;;;;;5077216;28;20454;-54
2022/03/12 10:19:49;;;;;;;10.57;6.13;;;20.70;25.20;;;;;;5076858;28;20470;-61
2022/03/12 10:22:16;;;;;;;10.40;6.80;;;20.90;23.40;;;;;;5076664;28;20446;-56
2022/03/12 10:24:44;;;;;;;10.10;6.00;;;21.10;24.00;;;;;;5077031;28;20906;-58
2022/03/12 10:27:11;;;;;;;10.07;6.23;;;21.30;23.10;;;;;;5076976;28;20820;-60
2022/03/12 10:29:38;;;;;;;9.80;6.63;;;21.10;23.20;;;;;;5076879;28;20769;-57
2022/03/12 10:32:23;;;;;;;8.23;5.60;;;21.00;22.80;;;;;;5076526;28;20466;-56
2022/03/12 10:34:52;;;;;;;9.10;5.70;;;21.40;24.60;;;;;;5076452;28;20806;-57
2022/03/12 10:37:19;;;;;;;10.83;7.20;;;21.30;22.60;;;;;;5076743;28;20474;-56
2022/03/12 10:39:48;;;;;;;9.13;5.50;;;21.60;23.60;;;;;;5076639;28;20439;-55
2022/03/12 10:42:15;;;;;;;10.40;5.50;;;21.90;23.10;;;;;;5076227;28;20913;-58
2022/03/12 10:44:43;;;;;;;9.10;6.10;;;21.80;22.40;;;;;;5076713;28;20463;-59
2022/03/12 10:47:17;;;;;;;7.70;5.63;;;21.10;22.20;;;;;;5076530;28;20442;-60
2022/03/12 10:49:57;;;;;;;6.00;5.03;;;21.30;24.40;;;;;;5076183;28;20489;-57
2022/03/12 10:52:25;;;;;;;10.23;5.10;;;21.00;22.50;;;;;;5076315;28;20448;-57
2022/03/12 10:54:53;;;;;;;8.57;5.43;;;20.70;22.70;;;;;;5076524;28;20474;-57
2022/03/12 10:57:20;;;;;;;7.77;5.00;;;20.80;23.60;;;;;;5076467;28;20488;-53
2022/03/12 10:59:47;;;;;;;7.80;5.00;;;20.60;23.00;;;;;;5077647;28;20541;-60
2022/03/12 11:02:15;;;;;;;9.80;5.70;;;20.40;23.00;;;;;;5077055;28;20475;-57
2022/03/12 11:04:42;;;;;;;7.80;5.40;;;20.00;23.10;;;;;;5077082;28;20447;-57
2022/03/12 11:07:25;;;;;;;10.40;6.00;;;19.60;22.90;;;;;;5076582;28;20566;-54
2022/03/12 11:09:54;;;;;;;7.10;4.90;;;19.20;23.30;;;;;;5076651;28;20493;-54
2022/03/12 11:12:29;;;;;;;13.33;4.27;;;18.70;24.00;;;;;;5076438;28;20497;-56
2022/03/12 11:15:04;;;;;;;7.40;4.80;;;18.30;22.80;;;;;;5076048;28;20900;-59
2022/03/12 11:17:41;;;;;;;8.40;4.63;;;17.80;24.50;;;;;;5075644;28;20981;-56
2022/03/12 11:20:16;;;;;;;6.30;4.43;;;17.30;24.30;;;;;;5076285;28;20746;-57
2022/03/12 11:22:43;;;;;;;7.20;5.03;;;17.00;24.90;;;;;;5076186;28;20439;-59
2022/03/12 11:25:15;;;;;;;8.50;4.57;;;16.70;24.70;;;;;;5076054;28;20442;-57
2022/03/12 11:27:43;;;;;;;9.10;5.43;;;16.50;27.90;;;;;;5076039;28;20450;-59
2022/03/12 11:30:13;;;;;;;9.67;5.40;;;16.30;25.50;;;;;;5075830;28;20969;-57
2022/03/12 11:32:45;;;;;;;9.07;5.27;;;16.10;25.40;;;;;;5075938;28;20470;-60
2022/03/12 11:35:15;;;;;;;8.87;4.47;;;15.70;24.20;;;;;;5075987;28;20570;-60
2022/03/12 11:37:43;;;;;;;7.97;5.50;;;15.30;24.20;;;;;;5075516;28;20450;-59
2022/03/12 11:40:17;;;;;;;7.80;4.43;;;14.90;24.30;;;;;;5074635;28;20438;-59
2022/03/12 11:42:44;;;;;;;6.80;4.63;;;14.50;24.30;;;;;;5076002;28;20322;-56
2022/03/12 11:45:14;;;;;;;7.50;4.57;;;14.40;24.80;;;;;;5075937;28;20446;-59
2022/03/12 11:47:43;;;;;;;8.13;4.87;;;14.10;24.80;;;;;;5075984;28;20935;-59
2022/03/12 11:50:14;;;;;;;6.57;3.73;;;13.70;24.60;;;;;;5075837;28;20486;-59
2022/03/12 11:52:42;;;;;;;6.60;4.13;;;13.50;25.40;;;;;;5075788;28;20510;-59
2022/03/12 11:55:17;;;;;;;7.77;4.37;;;13.20;25.40;;;;;;5075336;28;20472;-60
2022/03/12 11:57:46;;;;;;;8.17;3.90;;;12.90;25.30;;;;;;5074531;28;20962;-57
2022/03/12 12:00:20;;;;;;;9.47;5.50;;;12.80;25.60;;;;;;5077289;28;20432;-61
2022/03/12 12:02:47;;;;;;;10.60;5.07;;;12.70;26.30;;;;;;5077489;28;20425;-60
2022/03/12 12:05:14;;;;;;;7.63;5.07;;;12.80;26.10;;;;;;5075563;28;20442;-58
2022/03/12 12:07:44;;;;;;;8.17;4.27;;;12.70;25.90;;;;;;5075057;28;20501;-58
2022/03/12 12:10:14;;;;;;;6.57;4.20;;;12.70;26.10;;;;;;5075206;28;20585;-59
2022/03/12 12:12:41;;;;;;;7.27;4.30;;;12.70;26.10;;;;;;5075182;28;20509;-60
2022/03/12 12:15:20;;;;;;;6.73;3.63;;;12.70;26.00;;;;;;5075638;28;20470;-62
2022/03/12 12:17:47;;;;;;;9.37;4.67;;;13.00;35.10;;;;;;5076527;28;20469;-63
2022/03/12 12:20:16;;;;;;;9.50;5.00;;;13.60;34.40;;;;;;5075609;28;20446;-56
2022/03/12 12:22:43;;;;;;;5.23;4.17;;;14.10;32.00;;;;;;5074680;28;20446;-59
2022/03/12 12:25:12;;;;;;;9.20;5.77;;;14.50;34.50;;;;;;5075210;28;20462;-58
2022/03/12 12:27:44;;;;;;;6.40;4.30;;;14.70;31.60;;;;;;5074855;28;20470;-60
2022/03/12 12:30:15;;;;;;;6.03;4.30;;;14.80;29.10;;;;;;5074913;28;20843;-56
2022/03/12 12:32:47;;;;;;;9.17;5.10;;;14.60;26.60;;;;;;5074818;28;20470;-58
2022/03/12 12:35:19;;;;;;;8.90;5.40;;;14.60;27.20;;;;;;5074842;28;20437;-55
2022/03/12 12:37:51;;;;;;;7.63;5.20;;;14.50;27.10;;;;;;5074335;28;20442;-58
2022/03/12 12:40:29;;;;;;;7.40;4.30;;;14.40;25.90;;;;;;5074812;28;20181;-58
2022/03/12 12:42:58;;;;;;;7.53;4.13;;;14.20;25.60;;;;;;5074851;28;20465;-57
2022/03/12 12:45:28;;;;;;;7.63;4.53;;;14.00;25.60;;;;;;5074272;28;20462;-58
2022/03/12 12:48:14;;;;;;;7.17;4.43;;;13.80;25.70;;;;;;5074433;28;20450;-58
2022/03/12 12:50:58;;;;;;;12.80;7.03;;;13.60;25.90;;;;;;5074515;28;20496;-59